sensor_id;sensor_type;location;lat;lon;timestamp;temperature;humidity
32187;DHT22;18686;53.084;8.872;2023-02-10T00:01:54;4.30;99.90
32187;DHT22;18686;53.084;8.872;2023-02-10T00:04:22;4.20;99.90
32187;DHT22;18686;53.084;8.872;2023-02-10T00:06:51;4.10;99.90
32187;DHT22;18686;53.084;8.872;2023-02-10T00:09:19;4.00;99.90
32187;DHT22;18686;53.084;8.872;2023-02-10T00:11:47;4.00;99.90
32187;DHT22;18686;53.084;8.872;2023-02-10T00:14:26;3.90;99.90
32187;DHT22;18686;53.084;8.872;2023-02-10T00:16:57;3.90;99.90
32187;DHT22;18686;53.084;8.872;2023-02-10T00:19:27;3.90;99.90
32187;DHT22;18686;53.084;8.872;2023-02-10T00:21:55;3.90;99.90
32187;DHT22;18686;53.084;8.872;2023-02-10T00:24:24;4.00;99.90
32187;DHT22;18686;53.084;8.872;2023-02-10T00:26:52;4.00;99.90
32187;DHT22;18686;53.084;8.872;2023-02-10T00:29:20;4.10;99.90
32187;DHT22;18686;53.084;8.872;2023-02-10T00:31:49;4.10;99.90
32187;DHT22;18686;53.084;8.872;2023-02-10T00:34:18;4.20;99.90
32187;DHT22;18686;53.084;8.872;2023-02-10T00:36:49;4.30;99.90
32187;DHT22;18686;53.084;8.872;2023-02-10T00:39:18;4.30;99.90
32187;DHT22;18686;53.084;8.872;2023-02-10T00:41:46;4.40;99.90
32187;DHT22;18686;53.084;8.872;2023-02-10T00:44:14;4.40;99.90
32187;DHT22;18686;53.084;8.872;2023-02-10T00:46:43;4.50;99.90
32187;DHT22;18686;53.084;8.872;2023-02-10T00:49:11;4.60;99.90
32187;DHT22;18686;53.084;8.872;2023-02-10T00:51:41;4.60;99.90
32187;DHT22;18686;53.084;8.872;2023-02-10T00:54:11;4.70;99.90
32187;DHT22;18686;53.084;8.872;2023-02-10T00:56:40;4.70;99.90
32187;DHT22;18686;53.084;8.872;2023-02-10T00:59:09;4.70;99.90
32187;DHT22;18686;53.084;8.872;2023-02-10T01:01:39;4.80;99.90
32187;DHT22;18686;53.084;8.872;2023-02-10T01:04:08;4.80;99.90
32187;DHT22;18686;53.084;8.872;2023-02-10T01:06:36;4.80;99.90
32187;DHT22;18686;53.084;8.872;2023-02-10T01:09:06;4.90;99.90
32187;DHT22;18686;53.084;8.872;2023-02-10T01:11:34;4.90;99.90
32187;DHT22;18686;53.084;8.872;2023-02-10T01:14:02;4.90;99.90
32187;DHT22;18686;53.084;8.872;2023-02-10T01:16:31;4.90;99.90
32187;DHT22;18686;53.084;8.872;2023-02-10T01:18:59;4.90;99.90
32187;DHT22;18686;53.084;8.872;2023-02-10T01:21:30;4.90;99.90
32187;DHT22;18686;53.084;8.872;2023-02-10T01:23:59;5.00;99.90
32187;DHT22;18686;53.084;8.872;2023-02-10T01:26:31;5.00;99.90
32187;DHT22;18686;53.084;8.872;2023-02-10T01:28:59;5.00;99.90
32187;DHT22;18686;53.084;8.872;2023-02-10T01:31:28;4.90;99.90
32187;DHT22;18686;53.084;8.872;2023-02-10T01:33:56;4.90;99.90
32187;DHT22;18686;53.084;8.872;2023-02-10T01:36:25;4.90;99.90
32187;DHT22;18686;53.084;8.872;2023-02-10T01:38:56;4.90;99.90
32187;DHT22;18686;53.084;8.872;2023-02-10T01:41:24;4.90;99.90
32187;DHT22;18686;53.084;8.872;2023-02-10T01:43:57;4.90;99.90
32187;DHT22;18686;53.084;8.872;2023-02-10T01:46:26;4.90;99.90
32187;DHT22;18686;53.084;8.872;2023-02-10T01:48:56;4.80;99.90
32187;DHT22;18686;53.084;8.872;2023-02-10T01:51:33;4.80;99.90
32187;DHT22;18686;53.084;8.872;2023-02-10T01:54:05;4.80;99.90
32187;DHT22;18686;53.084;8.872;2023-02-10T01:56:36;4.70;99.90
32187;DHT22;18686;53.084;8.872;2023-02-10T01:59:06;4.70;99.90
32187;DHT22;18686;53.084;8.872;2023-02-10T02:01:35;4.70;99.90
32187;DHT22;18686;53.084;8.872;2023-02-10T02:04:04;4.60;99.90
32187;DHT22;18686;53.084;8.872;2023-02-10T02:06:33;4.50;99.90
32187;DHT22;18686;53.084;8.872;2023-02-10T02:09:02;4.50;99.90
32187;DHT22;18686;53.084;8.872;2023-02-10T02:11:35;4.40;99.90
32187;DHT22;18686;53.084;8.872;2023-02-10T02:14:22;4.40;99.90
32187;DHT22;18686;53.084;8.872;2023-02-10T02:17:06;4.40;99.90
32187;DHT22;18686;53.084;8.872;2023-02-10T02:20:04;4.40;99.90
32187;DHT22;18686;53.084;8.872;2023-02-10T02:23:12;4.30;99.90
32187;DHT22;18686;53.084;8.872;2023-02-10T02:25:57;4.20;99.90
32187;DHT22;18686;53.084;8.872;2023-02-10T02:28:38;4.10;99.90
32187;DHT22;18686;53.084;8.872;2023-02-10T02:31:39;4.00;99.90
32187;DHT22;18686;53.084;8.872;2023-02-10T02:34:13;3.90;99.90
32187;DHT22;18686;53.084;8.872;2023-02-10T02:36:46;4.00;99.90
32187;DHT22;18686;53.084;8.872;2023-02-10T02:39:16;3.90;99.90
32187;DHT22;18686;53.084;8.872;2023-02-10T02:41:44;4.00;99.90
32187;DHT22;18686;53.084;8.872;2023-02-10T02:44:13;4.00;99.90
32187;DHT22;18686;53.084;8.872;2023-02-10T02:46:48;4.00;99.90
32187;DHT22;18686;53.084;8.872;2023-02-10T02:49:26;4.10;99.90
32187;DHT22;18686;53.084;8.872;2023-02-10T02:52:02;4.00;99.90
32187;DHT22;18686;53.084;8.872;2023-02-10T02:54:37;4.10;99.90
32187;DHT22;18686;53.084;8.872;2023-02-10T02:57:15;4.00;99.90
32187;DHT22;18686;53.084;8.872;2023-02-10T02:59:50;3.90;99.90
32187;DHT22;18686;53.084;8.872;2023-02-10T03:02:21;3.80;99.90
32187;DHT22;18686;53.084;8.872;2023-02-10T03:04:49;3.70;99.90
32187;DHT22;18686;53.084;8.872;2023-02-10T03:07:18;3.50;99.90
32187;DHT22;18686;53.084;8.872;2023-02-10T03:09:46;3.40;99.90
32187;DHT22;18686;53.084;8.872;2023-02-10T03:12:15;3.30;99.90
32187;DHT22;18686;53.084;8.872;2023-02-10T03:14:43;3.20;99.90
32187;DHT22;18686;53.084;8.872;2023-02-10T03:17:11;3.10;99.90
32187;DHT22;18686;53.084;8.872;2023-02-10T03:19:41;3.10;99.90
32187;DHT22;18686;53.084;8.872;2023-02-10T03:22:12;3.00;99.90
32187;DHT22;18686;53.084;8.872;2023-02-10T03:24:40;2.90;99.90
32187;DHT22;18686;53.084;8.872;2023-02-10T03:27:08;2.80;99.90
32187;DHT22;18686;53.084;8.872;2023-02-10T03:29:37;2.70;99.90
32187;DHT22;18686;53.084;8.872;2023-02-10T03:32:05;2.70;99.90
32187;DHT22;18686;53.084;8.872;2023-02-10T03:34:34;2.60;99.90
32187;DHT22;18686;53.084;8.872;2023-02-10T03:37:03;2.60;99.90
32187;DHT22;18686;53.084;8.872;2023-02-10T03:39:32;2.50;99.90
32187;DHT22;18686;53.084;8.872;2023-02-10T03:42:00;2.60;99.90
32187;DHT22;18686;53.084;8.872;2023-02-10T03:44:28;2.50;99.90
32187;DHT22;18686;53.084;8.872;2023-02-10T03:46:57;2.50;99.90
32187;DHT22;18686;53.084;8.872;2023-02-10T03:49:25;2.50;99.90
32187;DHT22;18686;53.084;8.872;2023-02-10T03:51:53;2.40;99.90
32187;DHT22;18686;53.084;8.872;2023-02-10T03:54:23;2.40;99.90
32187;DHT22;18686;53.084;8.872;2023-02-10T03:56:51;2.40;99.90
32187;DHT22;18686;53.084;8.872;2023-02-10T03:59:19;2.40;99.90
32187;DHT22;18686;53.084;8.872;2023-02-10T04:01:47;2.40;99.90
32187;DHT22;18686;53.084;8.872;2023-02-10T04:04:16;2.40;99.90
32187;DHT22;18686;53.084;8.872;2023-02-10T04:06:44;2.30;99.90
32187;DHT22;18686;53.084;8.872;2023-02-10T04:09:12;2.30;99.90
32187;DHT22;18686;53.084;8.872;2023-02-10T04:11:43;2.30;99.90
32187;DHT22;18686;53.084;8.872;2023-02-10T04:14:11;2.30;99.90
32187;DHT22;18686;53.084;8.872;2023-02-10T04:16:39;2.20;99.90
32187;DHT22;18686;53.084;8.872;2023-02-10T04:19:08;2.20;99.90
32187;DHT22;18686;53.084;8.872;2023-02-10T04:21:36;2.20;99.90
32187;DHT22;18686;53.084;8.872;2023-02-10T04:24:05;2.20;99.90
32187;DHT22;18686;53.084;8.872;2023-02-10T04:26:33;2.20;99.90
32187;DHT22;18686;53.084;8.872;2023-02-10T04:29:03;2.30;99.90
32187;DHT22;18686;53.084;8.872;2023-02-10T04:31:31;2.30;99.90
32187;DHT22;18686;53.084;8.872;2023-02-10T04:33:59;2.30;99.90
32187;DHT22;18686;53.084;8.872;2023-02-10T04:36:27;2.30;99.90
32187;DHT22;18686;53.084;8.872;2023-02-10T04:38:56;2.30;99.90
32187;DHT22;18686;53.084;8.872;2023-02-10T04:41:24;2.30;99.90
32187;DHT22;18686;53.084;8.872;2023-02-10T04:43:52;2.30;99.90
32187;DHT22;18686;53.084;8.872;2023-02-10T04:46:22;2.20;99.90
32187;DHT22;18686;53.084;8.872;2023-02-10T04:48:50;2.20;99.90
32187;DHT22;18686;53.084;8.872;2023-02-10T04:51:18;2.20;99.90
32187;DHT22;18686;53.084;8.872;2023-02-10T04:53:46;2.10;99.90
32187;DHT22;18686;53.084;8.872;2023-02-10T04:56:15;2.10;99.90
32187;DHT22;18686;53.084;8.872;2023-02-10T04:58:43;2.00;99.90
32187;DHT22;18686;53.084;8.872;2023-02-10T05:01:12;1.90;99.90
32187;DHT22;18686;53.084;8.872;2023-02-10T05:03:41;1.90;99.90
32187;DHT22;18686;53.084;8.872;2023-02-10T05:06:12;1.80;99.90
32187;DHT22;18686;53.084;8.872;2023-02-10T05:08:41;1.80;99.90
32187;DHT22;18686;53.084;8.872;2023-02-10T05:11:10;1.80;99.90
32187;DHT22;18686;53.084;8.872;2023-02-10T05:13:38;1.70;99.90
32187;DHT22;18686;53.084;8.872;2023-02-10T05:16:07;1.70;99.90
32187;DHT22;18686;53.084;8.872;2023-02-10T05:18:36;1.60;99.90
32187;DHT22;18686;53.084;8.872;2023-02-10T05:21:08;1.60;99.90
32187;DHT22;18686;53.084;8.872;2023-02-10T05:23:38;1.60;99.90
32187;DHT22;18686;53.084;8.872;2023-02-10T05:26:07;1.60;99.90
32187;DHT22;18686;53.084;8.872;2023-02-10T05:28:35;1.60;99.90
32187;DHT22;18686;53.084;8.872;2023-02-10T05:31:03;1.50;99.90
32187;DHT22;18686;53.084;8.872;2023-02-10T05:33:34;1.50;99.90
32187;DHT22;18686;53.084;8.872;2023-02-10T05:36:02;1.40;99.90
32187;DHT22;18686;53.084;8.872;2023-02-10T05:38:32;1.40;99.90
32187;DHT22;18686;53.084;8.872;2023-02-10T05:41:00;1.40;99.90
32187;DHT22;18686;53.084;8.872;2023-02-10T05:43:28;1.40;99.90
32187;DHT22;18686;53.084;8.872;2023-02-10T05:45:56;1.40;99.90
32187;DHT22;18686;53.084;8.872;2023-02-10T05:48:25;1.40;99.90
32187;DHT22;18686;53.084;8.872;2023-02-10T05:50:53;1.40;99.90
32187;DHT22;18686;53.084;8.872;2023-02-10T05:53:24;1.40;99.90
32187;DHT22;18686;53.084;8.872;2023-02-10T05:55:53;1.30;99.90
32187;DHT22;18686;53.084;8.872;2023-02-10T05:58:21;1.40;99.90
32187;DHT22;18686;53.084;8.872;2023-02-10T06:00:49;1.30;99.90
32187;DHT22;18686;53.084;8.872;2023-02-10T06:03:17;1.30;99.90
32187;DHT22;18686;53.084;8.872;2023-02-10T06:05:46;1.30;99.90
32187;DHT22;18686;53.084;8.872;2023-02-10T06:08:14;1.30;99.90
32187;DHT22;18686;53.084;8.872;2023-02-10T06:10:42;1.20;99.90
32187;DHT22;18686;53.084;8.872;2023-02-10T06:13:12;1.20;99.90
32187;DHT22;18686;53.084;8.872;2023-02-10T06:15:40;1.20;99.90
32187;DHT22;18686;53.084;8.872;2023-02-10T06:18:08;1.20;99.90
32187;DHT22;18686;53.084;8.872;2023-02-10T06:20:36;1.20;99.90
32187;DHT22;18686;53.084;8.872;2023-02-10T06:23:05;1.20;99.90
32187;DHT22;18686;53.084;8.872;2023-02-10T06:25:33;1.20;99.90
32187;DHT22;18686;53.084;8.872;2023-02-10T06:28:03;1.20;99.90
32187;DHT22;18686;53.084;8.872;2023-02-10T06:30:33;1.20;99.90
32187;DHT22;18686;53.084;8.872;2023-02-10T06:33:01;1.20;99.90
32187;DHT22;18686;53.084;8.872;2023-02-10T06:35:30;1.20;99.90
32187;DHT22;18686;53.084;8.872;2023-02-10T06:37:58;1.20;99.90
32187;DHT22;18686;53.084;8.872;2023-02-10T06:40:27;1.20;99.90
32187;DHT22;18686;53.084;8.872;2023-02-10T06:42:58;1.20;99.90
32187;DHT22;18686;53.084;8.872;2023-02-10T06:45:28;1.20;99.90
32187;DHT22;18686;53.084;8.872;2023-02-10T06:47:57;1.20;99.90
32187;DHT22;18686;53.084;8.872;2023-02-10T06:50:26;1.20;99.90
32187;DHT22;18686;53.084;8.872;2023-02-10T06:52:54;1.10;99.90
32187;DHT22;18686;53.084;8.872;2023-02-10T06:55:22;1.10;99.90
32187;DHT22;18686;53.084;8.872;2023-02-10T06:57:50;1.10;99.90
32187;DHT22;18686;53.084;8.872;2023-02-10T07:00:19;1.10;99.90
32187;DHT22;18686;53.084;8.872;2023-02-10T07:02:47;1.20;99.90
32187;DHT22;18686;53.084;8.872;2023-02-10T07:05:17;1.20;99.90
32187;DHT22;18686;53.084;8.872;2023-02-10T07:07:46;1.20;99.90
32187;DHT22;18686;53.084;8.872;2023-02-10T07:10:14;1.20;99.90
32187;DHT22;18686;53.084;8.872;2023-02-10T07:12:42;1.30;99.90
32187;DHT22;18686;53.084;8.872;2023-02-10T07:15:11;1.30;99.90
32187;DHT22;18686;53.084;8.872;2023-02-10T07:17:39;1.30;99.90
32187;DHT22;18686;53.084;8.872;2023-02-10T07:20:08;1.40;99.90
32187;DHT22;18686;53.084;8.872;2023-02-10T07:22:38;1.40;99.90
32187;DHT22;18686;53.084;8.872;2023-02-10T07:25:06;1.40;99.90
32187;DHT22;18686;53.084;8.872;2023-02-10T07:27:37;1.50;99.90
32187;DHT22;18686;53.084;8.872;2023-02-10T07:30:06;1.60;99.90
32187;DHT22;18686;53.084;8.872;2023-02-10T07:32:34;1.60;99.90
32187;DHT22;18686;53.084;8.872;2023-02-10T07:35:03;1.80;99.90
32187;DHT22;18686;53.084;8.872;2023-02-10T07:37:31;1.90;99.90
32187;DHT22;18686;53.084;8.872;2023-02-10T07:40:01;1.90;99.90
32187;DHT22;18686;53.084;8.872;2023-02-10T07:42:29;2.00;99.90
32187;DHT22;18686;53.084;8.872;2023-02-10T07:45:19;2.10;99.90
32187;DHT22;18686;53.084;8.872;2023-02-10T07:47:47;2.10;99.90
32187;DHT22;18686;53.084;8.872;2023-02-10T07:50:15;2.20;99.90
32187;DHT22;18686;53.084;8.872;2023-02-10T07:52:43;2.30;99.90
32187;DHT22;18686;53.084;8.872;2023-02-10T07:55:13;2.50;99.90
32187;DHT22;18686;53.084;8.872;2023-02-10T07:57:41;2.70;99.90
32187;DHT22;18686;53.084;8.872;2023-02-10T08:00:11;2.80;99.90
32187;DHT22;18686;53.084;8.872;2023-02-10T08:02:40;3.10;99.90
32187;DHT22;18686;53.084;8.872;2023-02-10T08:05:09;3.30;99.90
32187;DHT22;18686;53.084;8.872;2023-02-10T08:07:37;3.50;99.90
32187;DHT22;18686;53.084;8.872;2023-02-10T08:10:06;3.80;99.90
32187;DHT22;18686;53.084;8.872;2023-02-10T08:12:35;4.10;99.90
32187;DHT22;18686;53.084;8.872;2023-02-10T08:15:05;4.40;99.90
32187;DHT22;18686;53.084;8.872;2023-02-10T08:17:33;4.60;99.90
32187;DHT22;18686;53.084;8.872;2023-02-10T08:20:02;4.90;99.90
32187;DHT22;18686;53.084;8.872;2023-02-10T08:22:30;5.10;99.90
32187;DHT22;18686;53.084;8.872;2023-02-10T08:25:00;5.50;99.90
32187;DHT22;18686;53.084;8.872;2023-02-10T08:27:28;5.80;99.90
32187;DHT22;18686;53.084;8.872;2023-02-10T08:29:58;6.10;99.90
32187;DHT22;18686;53.084;8.872;2023-02-10T08:32:26;6.40;99.90
32187;DHT22;18686;53.084;8.872;2023-02-10T08:34:54;6.70;99.90
32187;DHT22;18686;53.084;8.872;2023-02-10T08:37:22;6.80;99.90
32187;DHT22;18686;53.084;8.872;2023-02-10T08:39:51;7.00;99.90
32187;DHT22;18686;53.084;8.872;2023-02-10T08:42:19;7.30;99.90
32187;DHT22;18686;53.084;8.872;2023-02-10T08:44:47;7.60;99.90
32187;DHT22;18686;53.084;8.872;2023-02-10T08:47:17;8.00;99.90
32187;DHT22;18686;53.084;8.872;2023-02-10T08:49:45;8.40;99.90
32187;DHT22;18686;53.084;8.872;2023-02-10T08:52:13;8.60;99.90
32187;DHT22;18686;53.084;8.872;2023-02-10T08:54:41;8.90;99.90
32187;DHT22;18686;53.084;8.872;2023-02-10T08:57:09;9.50;99.90
32187;DHT22;18686;53.084;8.872;2023-02-10T08:59:37;10.20;99.80
32187;DHT22;18686;53.084;8.872;2023-02-10T09:02:09;10.80;97.20
32187;DHT22;18686;53.084;8.872;2023-02-10T09:04:40;11.40;94.50
32187;DHT22;18686;53.084;8.872;2023-02-10T09:07:09;12.20;89.10
32187;DHT22;18686;53.084;8.872;2023-02-10T09:09:40;13.00;87.20
32187;DHT22;18686;53.084;8.872;2023-02-10T09:12:10;13.80;78.00
32187;DHT22;18686;53.084;8.872;2023-02-10T09:14:38;14.60;76.00
32187;DHT22;18686;53.084;8.872;2023-02-10T09:17:10;15.40;72.00
32187;DHT22;18686;53.084;8.872;2023-02-10T09:19:40;16.00;65.50
32187;DHT22;18686;53.084;8.872;2023-02-10T09:22:08;16.40;61.60
32187;DHT22;18686;53.084;8.872;2023-02-10T09:24:36;16.60;58.40
32187;DHT22;18686;53.084;8.872;2023-02-10T09:27:05;16.80;58.00
32187;DHT22;18686;53.084;8.872;2023-02-10T09:29:33;17.10;57.00
32187;DHT22;18686;53.084;8.872;2023-02-10T09:32:01;17.60;56.50
32187;DHT22;18686;53.084;8.872;2023-02-10T09:34:29;18.20;54.10
32187;DHT22;18686;53.084;8.872;2023-02-10T09:37:00;18.60;51.80
32187;DHT22;18686;53.084;8.872;2023-02-10T09:39:29;18.50;49.20
32187;DHT22;18686;53.084;8.872;2023-02-10T09:42:06;18.40;48.90
32187;DHT22;18686;53.084;8.872;2023-02-10T09:44:38;18.30;49.60
32187;DHT22;18686;53.084;8.872;2023-02-10T09:47:23;18.40;48.90
32187;DHT22;18686;53.084;8.872;2023-02-10T09:50:10;18.80;48.50
32187;DHT22;18686;53.084;8.872;2023-02-10T09:52:54;19.30;48.30
32187;DHT22;18686;53.084;8.872;2023-02-10T09:55:28;19.80;47.00
32187;DHT22;18686;53.084;8.872;2023-02-10T09:57:59;19.70;45.10
32187;DHT22;18686;53.084;8.872;2023-02-10T10:00:31;19.60;45.40
32187;DHT22;18686;53.084;8.872;2023-02-10T10:03:05;19.70;45.40
32187;DHT22;18686;53.084;8.872;2023-02-10T10:05:40;19.60;45.10
32187;DHT22;18686;53.084;8.872;2023-02-10T10:08:18;19.50;44.10
32187;DHT22;18686;53.084;8.872;2023-02-10T10:10:49;19.80;44.30
32187;DHT22;18686;53.084;8.872;2023-02-10T10:13:22;20.20;44.30
32187;DHT22;18686;53.084;8.872;2023-02-10T10:16:05;20.80;42.60
32187;DHT22;18686;53.084;8.872;2023-02-10T10:18:42;21.40;42.10
32187;DHT22;18686;53.084;8.872;2023-02-10T10:21:19;22.10;41.20
32187;DHT22;18686;53.084;8.872;2023-02-10T10:24:03;22.40;39.90
32187;DHT22;18686;53.084;8.872;2023-02-10T10:26:45;22.90;39.60
32187;DHT22;18686;53.084;8.872;2023-02-10T10:29:31;23.30;38.70
32187;DHT22;18686;53.084;8.872;2023-02-10T10:32:13;23.10;38.10
32187;DHT22;18686;53.084;8.872;2023-02-10T10:34:49;23.10;37.00
32187;DHT22;18686;53.084;8.872;2023-02-10T10:37:20;23.10;38.20
32187;DHT22;18686;53.084;8.872;2023-02-10T10:39:53;22.90;38.20
32187;DHT22;18686;53.084;8.872;2023-02-10T10:42:26;22.90;37.70
32187;DHT22;18686;53.084;8.872;2023-02-10T10:45:02;23.60;37.60
32187;DHT22;18686;53.084;8.872;2023-02-10T10:47:38;24.50;36.20
32187;DHT22;18686;53.084;8.872;2023-02-10T10:50:13;24.80;35.50
32187;DHT22;18686;53.084;8.872;2023-02-10T10:52:43;25.40;34.80
32187;DHT22;18686;53.084;8.872;2023-02-10T10:55:17;26.00;34.70
32187;DHT22;18686;53.084;8.872;2023-02-10T10:57:47;26.20;33.20
32187;DHT22;18686;53.084;8.872;2023-02-10T11:00:20;26.30;33.40
32187;DHT22;18686;53.084;8.872;2023-02-10T11:02:54;26.60;32.90
32187;DHT22;18686;53.084;8.872;2023-02-10T11:05:27;27.00;32.60
32187;DHT22;18686;53.084;8.872;2023-02-10T11:07:57;27.40;31.80
32187;DHT22;18686;53.084;8.872;2023-02-10T11:10:32;27.20;31.40
32187;DHT22;18686;53.084;8.872;2023-02-10T11:13:01;25.80;32.10
32187;DHT22;18686;53.084;8.872;2023-02-10T11:15:36;24.10;33.60
32187;DHT22;18686;53.084;8.872;2023-02-10T11:18:07;22.30;35.80
32187;DHT22;18686;53.084;8.872;2023-02-10T11:20:40;20.70;38.30
32187;DHT22;18686;53.084;8.872;2023-02-10T11:23:14;19.40;40.80
32187;DHT22;18686;53.084;8.872;2023-02-10T11:25:45;18.10;42.50
32187;DHT22;18686;53.084;8.872;2023-02-10T11:28:19;17.40;44.30
32187;DHT22;18686;53.084;8.872;2023-02-10T11:30:55;17.10;45.70
32187;DHT22;18686;53.084;8.872;2023-02-10T11:33:28;17.00;46.10
32187;DHT22;18686;53.084;8.872;2023-02-10T11:36:01;18.00;45.30
32187;DHT22;18686;53.084;8.872;2023-02-10T11:38:29;19.20;43.30
32187;DHT22;18686;53.084;8.872;2023-02-10T11:41:01;20.30;41.20
32187;DHT22;18686;53.084;8.872;2023-02-10T11:43:36;21.50;39.40
32187;DHT22;18686;53.084;8.872;2023-02-10T11:46:06;21.70;38.20
32187;DHT22;18686;53.084;8.872;2023-02-10T11:48:37;20.90;38.80
32187;DHT22;18686;53.084;8.872;2023-02-10T11:51:12;20.00;40.50
32187;DHT22;18686;53.084;8.872;2023-02-10T11:53:42;19.40;40.90
32187;DHT22;18686;53.084;8.872;2023-02-10T11:56:18;18.70;42.20
32187;DHT22;18686;53.084;8.872;2023-02-10T11:58:56;18.70;43.10
32187;DHT22;18686;53.084;8.872;2023-02-10T12:01:51;17.90;43.50
32187;DHT22;18686;53.084;8.872;2023-02-10T12:04:30;17.70;44.60
32187;DHT22;18686;53.084;8.872;2023-02-10T12:07:07;18.00;44.00
32187;DHT22;18686;53.084;8.872;2023-02-10T12:09:40;18.80;43.50
32187;DHT22;18686;53.084;8.872;2023-02-10T12:12:15;20.20;41.00
32187;DHT22;18686;53.084;8.872;2023-02-10T12:14:57;21.10;39.60
32187;DHT22;18686;53.084;8.872;2023-02-10T12:17:31;22.10;38.30
32187;DHT22;18686;53.084;8.872;2023-02-10T12:20:18;23.20;36.60
32187;DHT22;18686;53.084;8.872;2023-02-10T12:23:08;24.60;35.10
32187;DHT22;18686;53.084;8.872;2023-02-10T12:25:46;24.20;34.10
32187;DHT22;18686;53.084;8.872;2023-02-10T12:28:30;24.60;34.10
32187;DHT22;18686;53.084;8.872;2023-02-10T12:31:10;24.30;34.80
32187;DHT22;18686;53.084;8.872;2023-02-10T12:33:53;24.10;34.60
32187;DHT22;18686;53.084;8.872;2023-02-10T12:36:29;24.40;34.80
32187;DHT22;18686;53.084;8.872;2023-02-10T12:39:09;24.60;34.50
32187;DHT22;18686;53.084;8.872;2023-02-10T12:41:47;24.30;34.20
32187;DHT22;18686;53.084;8.872;2023-02-10T12:44:28;23.10;35.00
32187;DHT22;18686;53.084;8.872;2023-02-10T12:47:06;22.30;36.10
32187;DHT22;18686;53.084;8.872;2023-02-10T12:49:50;21.40;36.90
32187;DHT22;18686;53.084;8.872;2023-02-10T12:52:23;21.50;37.50
32187;DHT22;18686;53.084;8.872;2023-02-10T12:54:57;21.10;37.80
32187;DHT22;18686;53.084;8.872;2023-02-10T12:57:28;21.70;37.60
32187;DHT22;18686;53.084;8.872;2023-02-10T13:00:00;22.10;36.60
32187;DHT22;18686;53.084;8.872;2023-02-10T13:02:37;22.70;36.30
32187;DHT22;18686;53.084;8.872;2023-02-10T13:05:10;23.20;35.10
32187;DHT22;18686;53.084;8.872;2023-02-10T13:07:43;23.00;35.20
32187;DHT22;18686;53.084;8.872;2023-02-10T13:10:16;23.30;35.30
32187;DHT22;18686;53.084;8.872;2023-02-10T13:12:48;22.80;35.10
32187;DHT22;18686;53.084;8.872;2023-02-10T13:15:25;22.70;35.80
32187;DHT22;18686;53.084;8.872;2023-02-10T13:17:54;22.00;36.40
32187;DHT22;18686;53.084;8.872;2023-02-10T13:20:30;21.10;37.60
32187;DHT22;18686;53.084;8.872;2023-02-10T13:23:10;20.50;38.10
32187;DHT22;18686;53.084;8.872;2023-02-10T13:25:51;19.50;39.50
32187;DHT22;18686;53.084;8.872;2023-02-10T13:28:27;19.00;40.70
32187;DHT22;18686;53.084;8.872;2023-02-10T13:34:01;17.70;43.30
32187;DHT22;18686;53.084;8.872;2023-02-10T13:36:33;17.50;44.00
32187;DHT22;18686;53.084;8.872;2023-02-10T13:39:04;17.60;43.60
32187;DHT22;18686;53.084;8.872;2023-02-10T13:41:37;17.50;43.70
32187;DHT22;18686;53.084;8.872;2023-02-10T13:44:23;17.60;44.10
32187;DHT22;18686;53.084;8.872;2023-02-10T13:47:08;17.40;44.20
32187;DHT22;18686;53.084;8.872;2023-02-10T13:49:49;17.10;44.90
32187;DHT22;18686;53.084;8.872;2023-02-10T13:52:20;16.70;45.50
32187;DHT22;18686;53.084;8.872;2023-02-10T13:54:56;16.50;45.90
32187;DHT22;18686;53.084;8.872;2023-02-10T13:57:30;16.10;46.60
32187;DHT22;18686;53.084;8.872;2023-02-10T14:00:13;16.10;46.90
32187;DHT22;18686;53.084;8.872;2023-02-10T14:02:44;15.30;48.20
32187;DHT22;18686;53.084;8.872;2023-02-10T14:05:26;14.80;49.50
32187;DHT22;18686;53.084;8.872;2023-02-10T14:07:54;14.80;50.20
32187;DHT22;18686;53.084;8.872;2023-02-10T14:10:30;14.60;50.40
32187;DHT22;18686;53.084;8.872;2023-02-10T14:13:01;14.40;50.90
32187;DHT22;18686;53.084;8.872;2023-02-10T14:15:32;14.10;51.40
32187;DHT22;18686;53.084;8.872;2023-02-10T14:18:04;13.90;52.00
32187;DHT22;18686;53.084;8.872;2023-02-10T14:20:37;13.70;52.30
32187;DHT22;18686;53.084;8.872;2023-02-10T14:23:07;13.40;53.30
32187;DHT22;18686;53.084;8.872;2023-02-10T14:25:38;13.10;54.20
32187;DHT22;18686;53.084;8.872;2023-02-10T14:28:19;12.60;55.10
32187;DHT22;18686;53.084;8.872;2023-02-10T14:30:52;12.40;56.40
32187;DHT22;18686;53.084;8.872;2023-02-10T14:33:26;12.10;57.10
32187;DHT22;18686;53.084;8.872;2023-02-10T14:35:56;12.00;57.90
32187;DHT22;18686;53.084;8.872;2023-02-10T14:38:26;11.70;58.50
32187;DHT22;18686;53.084;8.872;2023-02-10T14:40:56;11.50;59.40
32187;DHT22;18686;53.084;8.872;2023-02-10T14:43:36;11.20;60.00
32187;DHT22;18686;53.084;8.872;2023-02-10T14:46:06;11.10;60.70
32187;DHT22;18686;53.084;8.872;2023-02-10T14:48:36;10.90;61.10
32187;DHT22;18686;53.084;8.872;2023-02-10T14:51:06;10.90;61.70
32187;DHT22;18686;53.084;8.872;2023-02-10T14:53:37;10.70;62.40
32187;DHT22;18686;53.084;8.872;2023-02-10T14:56:16;10.60;62.80
32187;DHT22;18686;53.084;8.872;2023-02-10T14:58:45;10.60;62.80
32187;DHT22;18686;53.084;8.872;2023-02-10T15:01:22;10.50;63.10
32187;DHT22;18686;53.084;8.872;2023-02-10T15:03:53;10.30;63.90
32187;DHT22;18686;53.084;8.872;2023-02-10T15:06:25;10.20;64.70
32187;DHT22;18686;53.084;8.872;2023-02-10T15:08:57;10.20;65.10
32187;DHT22;18686;53.084;8.872;2023-02-10T15:11:31;10.10;65.50
32187;DHT22;18686;53.084;8.872;2023-02-10T15:14:20;10.00;65.00
32187;DHT22;18686;53.084;8.872;2023-02-10T15:16:50;9.80;65.80
32187;DHT22;18686;53.084;8.872;2023-02-10T15:19:21;9.60;66.90
32187;DHT22;18686;53.084;8.872;2023-02-10T15:21:50;9.50;67.00
32187;DHT22;18686;53.084;8.872;2023-02-10T15:24:26;9.30;67.80
32187;DHT22;18686;53.084;8.872;2023-02-10T15:26:55;9.10;68.50
32187;DHT22;18686;53.084;8.872;2023-02-10T15:29:23;8.90;69.10
32187;DHT22;18686;53.084;8.872;2023-02-10T15:31:54;8.80;70.30
32187;DHT22;18686;53.084;8.872;2023-02-10T15:34:25;8.70;71.50
32187;DHT22;18686;53.084;8.872;2023-02-10T15:36:59;8.50;71.50
32187;DHT22;18686;53.084;8.872;2023-02-10T15:39:29;8.30;72.30
32187;DHT22;18686;53.084;8.872;2023-02-10T15:42:17;8.20;73.10
32187;DHT22;18686;53.084;8.872;2023-02-10T15:44:47;8.10;74.80
32187;DHT22;18686;53.084;8.872;2023-02-10T15:47:24;7.90;75.60
32187;DHT22;18686;53.084;8.872;2023-02-10T15:49:56;7.70;77.00
32187;DHT22;18686;53.084;8.872;2023-02-10T15:52:28;7.70;78.60
32187;DHT22;18686;53.084;8.872;2023-02-10T15:54:59;7.50;79.70
32187;DHT22;18686;53.084;8.872;2023-02-10T15:57:28;7.40;80.40
32187;DHT22;18686;53.084;8.872;2023-02-10T15:59:57;7.30;82.00
32187;DHT22;18686;53.084;8.872;2023-02-10T16:02:25;7.20;83.40
32187;DHT22;18686;53.084;8.872;2023-02-10T16:04:55;7.10;84.50
32187;DHT22;18686;53.084;8.872;2023-02-10T16:07:25;7.00;85.70
32187;DHT22;18686;53.084;8.872;2023-02-10T16:09:54;6.90;87.30
32187;DHT22;18686;53.084;8.872;2023-02-10T16:12:24;6.80;88.30